sensor_id;sensor_type;location;lat;lon;timestamp;P1;durP1;ratioP1;P2;durP2;ratioP2
20705;SDS011;10514;49.468;11.044;2023-04-09T00:00:33;8.70;;;6.43;;
20705;SDS011;10514;49.468;11.044;2023-04-09T00:03:00;10.03;;;6.97;;
20705;SDS011;10514;49.468;11.044;2023-04-09T00:05:26;8.80;;;6.47;;
20705;SDS011;10514;49.468;11.044;2023-04-09T00:07:52;7.53;;;6.07;;
20705;SDS011;10514;49.468;11.044;2023-04-09T00:10:18;11.70;;;7.57;;
20705;SDS011;10514;49.468;11.044;2023-04-09T00:12:44;10.63;;;7.10;;
20705;SDS011;10514;49.468;11.044;2023-04-09T00:15:10;11.10;;;7.30;;
20705;SDS011;10514;49.468;11.044;2023-04-09T00:17:36;9.60;;;6.40;;
20705;SDS011;10514;49.468;11.044;2023-04-09T00:20:02;10.37;;;6.50;;
20705;SDS011;10514;49.468;11.044;2023-04-09T00:22:28;11.20;;;7.13;;
20705;SDS011;10514;49.468;11.044;2023-04-09T00:24:54;8.80;;;6.70;;
20705;SDS011;10514;49.468;11.044;2023-04-09T00:27:21;10.97;;;7.53;;
20705;SDS011;10514;49.468;11.044;2023-04-09T00:29:47;9.97;;;6.97;;
20705;SDS011;10514;49.468;11.044;2023-04-09T00:32:13;9.23;;;6.53;;
20705;SDS011;10514;49.468;11.044;2023-04-09T00:34:39;11.37;;;7.00;;
20705;SDS011;10514;49.468;11.044;2023-04-09T00:37:05;11.27;;;7.07;;
20705;SDS011;10514;49.468;11.044;2023-04-09T00:39:31;9.47;;;6.37;;
20705;SDS011;10514;49.468;11.044;2023-04-09T00:41:58;8.63;;;6.43;;
20705;SDS011;10514;49.468;11.044;2023-04-09T00:44:26;8.67;;;6.73;;
20705;SDS011;10514;49.468;11.044;2023-04-09T00:46:52;10.93;;;6.93;;
20705;SDS011;10514;49.468;11.044;2023-04-09T00:49:18;10.40;;;6.63;;
20705;SDS011;10514;49.468;11.044;2023-04-09T00:51:45;10.80;;;6.50;;
20705;SDS011;10514;49.468;11.044;2023-04-09T00:54:11;10.23;;;7.23;;
20705;SDS011;10514;49.468;11.044;2023-04-09T00:56:37;9.13;;;6.53;;
20705;SDS011;10514;49.468;11.044;2023-04-09T00:59:03;12.20;;;7.27;;
20705;SDS011;10514;49.468;11.044;2023-04-09T01:01:29;11.60;;;7.27;;
20705;SDS011;10514;49.468;11.044;2023-04-09T01:03:55;9.90;;;7.37;;
20705;SDS011;10514;49.468;11.044;2023-04-09T01:13:57;10.33;;;7.13;;
20705;SDS011;10514;49.468;11.044;2023-04-09T01:16:30;10.53;;;7.43;;
20705;SDS011;10514;49.468;11.044;2023-04-09T01:19:08;12.40;;;7.63;;
20705;SDS011;10514;49.468;11.044;2023-04-09T01:21:35;10.67;;;7.03;;
20705;SDS011;10514;49.468;11.044;2023-04-09T01:24:11;10.23;;;7.13;;
20705;SDS011;10514;49.468;11.044;2023-04-09T01:27:07;11.37;;;7.10;;
20705;SDS011;10514;49.468;11.044;2023-04-09T01:29:33;10.90;;;7.17;;
20705;SDS011;10514;49.468;11.044;2023-04-09T01:32:03;10.87;;;7.40;;
20705;SDS011;10514;49.468;11.044;2023-04-09T01:34:29;12.10;;;7.40;;
20705;SDS011;10514;49.468;11.044;2023-04-09T01:36:57;12.37;;;7.93;;
20705;SDS011;10514;49.468;11.044;2023-04-09T01:39:25;13.60;;;8.03;;
20705;SDS011;10514;49.468;11.044;2023-04-09T01:41:51;10.57;;;6.90;;
20705;SDS011;10514;49.468;11.044;2023-04-09T01:44:17;12.40;;;7.00;;
20705;SDS011;10514;49.468;11.044;2023-04-09T01:46:47;12.77;;;7.43;;
20705;SDS011;10514;49.468;11.044;2023-04-09T01:49:14;10.00;;;7.07;;
20705;SDS011;10514;49.468;11.044;2023-04-09T01:51:40;11.20;;;6.90;;
20705;SDS011;10514;49.468;11.044;2023-04-09T01:54:06;10.57;;;7.10;;
20705;SDS011;10514;49.468;11.044;2023-04-09T01:56:42;12.47;;;7.47;;
20705;SDS011;10514;49.468;11.044;2023-04-09T01:59:08;10.93;;;6.77;;
20705;SDS011;10514;49.468;11.044;2023-04-09T02:01:36;10.73;;;6.67;;
20705;SDS011;10514;49.468;11.044;2023-04-09T02:04:59;13.10;;;8.10;;
20705;SDS011;10514;49.468;11.044;2023-04-09T02:07:10;12.03;;;7.80;;
20705;SDS011;10514;49.468;11.044;2023-04-09T02:09:47;10.97;;;7.10;;
20705;SDS011;10514;49.468;11.044;2023-04-09T02:12:14;13.43;;;8.07;;
20705;SDS011;10514;49.468;11.044;2023-04-09T02:14:41;11.47;;;7.70;;
20705;SDS011;10514;49.468;11.044;2023-04-09T02:17:11;14.40;;;8.60;;
20705;SDS011;10514;49.468;11.044;2023-04-09T02:19:40;11.83;;;7.40;;
20705;SDS011;10514;49.468;11.044;2023-04-09T02:22:07;13.57;;;7.80;;
20705;SDS011;10514;49.468;11.044;2023-04-09T02:24:33;12.47;;;7.87;;
20705;SDS011;10514;49.468;11.044;2023-04-09T02:26:59;13.07;;;7.77;;
20705;SDS011;10514;49.468;11.044;2023-04-09T02:29:25;12.37;;;7.87;;
20705;SDS011;10514;49.468;11.044;2023-04-09T02:31:51;11.80;;;7.97;;
20705;SDS011;10514;49.468;11.044;2023-04-09T02:34:18;12.00;;;8.17;;
20705;SDS011;10514;49.468;11.044;2023-04-09T02:36:44;13.50;;;8.00;;
20705;SDS011;10514;49.468;11.044;2023-04-09T02:39:09;11.30;;;7.63;;
20705;SDS011;10514;49.468;11.044;2023-04-09T02:41:35;10.67;;;7.70;;
20705;SDS011;10514;49.468;11.044;2023-04-09T02:44:01;13.03;;;7.93;;
20705;SDS011;10514;49.468;11.044;2023-04-09T02:46:37;11.37;;;6.90;;
20705;SDS011;10514;49.468;11.044;2023-04-09T02:49:02;11.67;;;7.50;;
20705;SDS011;10514;49.468;11.044;2023-04-09T02:51:28;9.80;;;6.60;;
20705;SDS011;10514;49.468;11.044;2023-04-09T02:53:54;10.37;;;7.20;;
20705;SDS011;10514;49.468;11.044;2023-04-09T02:56:20;11.23;;;7.10;;
20705;SDS011;10514;49.468;11.044;2023-04-09T02:58:46;9.57;;;6.40;;
20705;SDS011;10514;49.468;11.044;2023-04-09T03:01:15;10.17;;;7.43;;
20705;SDS011;10514;49.468;11.044;2023-04-09T03:03:40;11.40;;;7.40;;
20705;SDS011;10514;49.468;11.044;2023-04-09T03:06:06;10.03;;;7.50;;
20705;SDS011;10514;49.468;11.044;2023-04-09T03:08:32;9.77;;;6.70;;
20705;SDS011;10514;49.468;11.044;2023-04-09T03:10:59;10.70;;;7.07;;
20705;SDS011;10514;49.468;11.044;2023-04-09T03:13:26;10.43;;;7.03;;
20705;SDS011;10514;49.468;11.044;2023-04-09T03:15:52;10.83;;;7.03;;
20705;SDS011;10514;49.468;11.044;2023-04-09T03:18:18;9.43;;;6.27;;
20705;SDS011;10514;49.468;11.044;2023-04-09T03:20:44;11.10;;;7.13;;
20705;SDS011;10514;49.468;11.044;2023-04-09T03:23:10;10.97;;;6.97;;
20705;SDS011;10514;49.468;11.044;2023-04-09T03:25:36;11.20;;;6.33;;
20705;SDS011;10514;49.468;11.044;2023-04-09T03:28:02;13.00;;;7.47;;
20705;SDS011;10514;49.468;11.044;2023-04-09T03:30:28;12.10;;;7.97;;
20705;SDS011;10514;49.468;11.044;2023-04-09T03:32:54;11.90;;;7.50;;
20705;SDS011;10514;49.468;11.044;2023-04-09T03:35:20;12.03;;;7.60;;
20705;SDS011;10514;49.468;11.044;2023-04-09T03:37:46;14.07;;;7.83;;
20705;SDS011;10514;49.468;11.044;2023-04-09T03:40:12;11.47;;;7.93;;
20705;SDS011;10514;49.468;11.044;2023-04-09T03:42:37;12.80;;;7.17;;
20705;SDS011;10514;49.468;11.044;2023-04-09T03:45:04;11.23;;;8.07;;
20705;SDS011;10514;49.468;11.044;2023-04-09T03:47:30;11.77;;;8.40;;
20705;SDS011;10514;49.468;11.044;2023-04-09T03:49:56;10.97;;;7.50;;
20705;SDS011;10514;49.468;11.044;2023-04-09T03:52:22;10.13;;;7.43;;
20705;SDS011;10514;49.468;11.044;2023-04-09T03:54:48;10.53;;;7.43;;
20705;SDS011;10514;49.468;11.044;2023-04-09T03:57:14;11.60;;;7.70;;
20705;SDS011;10514;49.468;11.044;2023-04-09T03:59:40;11.63;;;8.47;;
20705;SDS011;10514;49.468;11.044;2023-04-09T04:02:06;10.10;;;7.50;;
20705;SDS011;10514;49.468;11.044;2023-04-09T04:04:32;16.77;;;9.93;;
20705;SDS011;10514;49.468;11.044;2023-04-09T04:06:58;24.30;;;16.03;;
20705;SDS011;10514;49.468;11.044;2023-04-09T04:09:24;24.20;;;14.20;;
20705;SDS011;10514;49.468;11.044;2023-04-09T04:11:50;17.83;;;11.27;;
20705;SDS011;10514;49.468;11.044;2023-04-09T04:14:16;15.50;;;10.03;;
20705;SDS011;10514;49.468;11.044;2023-04-09T04:16:42;15.63;;;10.07;;
20705;SDS011;10514;49.468;11.044;2023-04-09T04:19:08;12.80;;;9.17;;
20705;SDS011;10514;49.468;11.044;2023-04-09T04:21:34;17.63;;;12.33;;
20705;SDS011;10514;49.468;11.044;2023-04-09T04:23:59;23.40;;;13.47;;
20705;SDS011;10514;49.468;11.044;2023-04-09T04:26:25;14.27;;;8.97;;
20705;SDS011;10514;49.468;11.044;2023-04-09T04:28:51;16.30;;;9.83;;
20705;SDS011;10514;49.468;11.044;2023-04-09T04:31:17;14.53;;;9.43;;
20705;SDS011;10514;49.468;11.044;2023-04-09T04:33:43;14.77;;;9.60;;
20705;SDS011;10514;49.468;11.044;2023-04-09T04:36:10;15.20;;;9.93;;
20705;SDS011;10514;49.468;11.044;2023-04-09T04:38:36;13.07;;;8.60;;
20705;SDS011;10514;49.468;11.044;2023-04-09T04:41:02;16.50;;;10.03;;
20705;SDS011;10514;49.468;11.044;2023-04-09T04:43:28;15.83;;;10.40;;
20705;SDS011;10514;49.468;11.044;2023-04-09T04:45:54;16.67;;;10.10;;
20705;SDS011;10514;49.468;11.044;2023-04-09T04:48:20;16.40;;;10.03;;
20705;SDS011;10514;49.468;11.044;2023-04-09T04:50:53;14.73;;;9.73;;
20705;SDS011;10514;49.468;11.044;2023-04-09T04:53:19;16.47;;;9.93;;
20705;SDS011;10514;49.468;11.044;2023-04-09T04:55:45;18.03;;;11.80;;
20705;SDS011;10514;49.468;11.044;2023-04-09T04:58:11;17.60;;;11.67;;
20705;SDS011;10514;49.468;11.044;2023-04-09T05:00:37;15.70;;;9.87;;
20705;SDS011;10514;49.468;11.044;2023-04-09T05:03:03;16.33;;;9.60;;
20705;SDS011;10514;49.468;11.044;2023-04-09T05:05:29;17.27;;;10.43;;
20705;SDS011;10514;49.468;11.044;2023-04-09T05:07:55;14.83;;;10.17;;
20705;SDS011;10514;49.468;11.044;2023-04-09T05:10:21;15.57;;;10.17;;
20705;SDS011;10514;49.468;11.044;2023-04-09T05:12:47;15.80;;;10.27;;
20705;SDS011;10514;49.468;11.044;2023-04-09T05:15:13;16.17;;;10.40;;
20705;SDS011;10514;49.468;11.044;2023-04-09T05:17:42;14.47;;;9.50;;
20705;SDS011;10514;49.468;11.044;2023-04-09T05:20:09;15.67;;;9.77;;
20705;SDS011;10514;49.468;11.044;2023-04-09T05:22:35;13.83;;;9.50;;
20705;SDS011;10514;49.468;11.044;2023-04-09T05:25:01;15.73;;;9.80;;
20705;SDS011;10514;49.468;11.044;2023-04-09T05:27:27;14.53;;;8.97;;
20705;SDS011;10514;49.468;11.044;2023-04-09T05:29:54;12.60;;;9.03;;
20705;SDS011;10514;49.468;11.044;2023-04-09T05:32:20;18.00;;;12.07;;
20705;SDS011;10514;49.468;11.044;2023-04-09T05:34:46;20.70;;;13.33;;
20705;SDS011;10514;49.468;11.044;2023-04-09T05:37:12;26.80;;;16.30;;
20705;SDS011;10514;49.468;11.044;2023-04-09T05:39:38;25.80;;;16.67;;
20705;SDS011;10514;49.468;11.044;2023-04-09T05:42:04;19.90;;;14.03;;
20705;SDS011;10514;49.468;11.044;2023-04-09T05:44:30;21.33;;;14.20;;
20705;SDS011;10514;49.468;11.044;2023-04-09T05:46:56;23.20;;;16.17;;
20705;SDS011;10514;49.468;11.044;2023-04-09T05:49:22;19.43;;;14.20;;
20705;SDS011;10514;49.468;11.044;2023-04-09T05:51:48;22.87;;;15.33;;
20705;SDS011;10514;49.468;11.044;2023-04-09T05:54:14;22.20;;;16.03;;
20705;SDS011;10514;49.468;11.044;2023-04-09T05:56:43;26.63;;;17.67;;
20705;SDS011;10514;49.468;11.044;2023-04-09T05:59:09;21.67;;;13.53;;
20705;SDS011;10514;49.468;11.044;2023-04-09T06:01:35;23.50;;;15.60;;
20705;SDS011;10514;49.468;11.044;2023-04-09T06:04:01;19.10;;;13.17;;
20705;SDS011;10514;49.468;11.044;2023-04-09T06:06:27;15.90;;;11.67;;
20705;SDS011;10514;49.468;11.044;2023-04-09T06:08:53;15.77;;;11.23;;
20705;SDS011;10514;49.468;11.044;2023-04-09T06:11:19;16.33;;;11.20;;
20705;SDS011;10514;49.468;11.044;2023-04-09T06:13:46;17.17;;;10.87;;
20705;SDS011;10514;49.468;11.044;2023-04-09T06:16:12;17.97;;;11.30;;
20705;SDS011;10514;49.468;11.044;2023-04-09T06:18:38;17.73;;;11.83;;
20705;SDS011;10514;49.468;11.044;2023-04-09T06:21:07;18.27;;;12.03;;
20705;SDS011;10514;49.468;11.044;2023-04-09T06:23:35;16.27;;;11.30;;
20705;SDS011;10514;49.468;11.044;2023-04-09T06:26:01;16.30;;;11.50;;
20705;SDS011;10514;49.468;11.044;2023-04-09T06:28:27;18.43;;;11.47;;
20705;SDS011;10514;49.468;11.044;2023-04-09T06:30:53;17.60;;;12.33;;
20705;SDS011;10514;49.468;11.044;2023-04-09T06:33:20;18.50;;;12.60;;
20705;SDS011;10514;49.468;11.044;2023-04-09T06:35:46;16.63;;;12.20;;
20705;SDS011;10514;49.468;11.044;2023-04-09T06:38:13;19.83;;;11.93;;
20705;SDS011;10514;49.468;11.044;2023-04-09T06:40:39;20.17;;;12.57;;
20705;SDS011;10514;49.468;11.044;2023-04-09T06:43:05;17.37;;;11.37;;
20705;SDS011;10514;49.468;11.044;2023-04-09T06:45:31;16.63;;;12.03;;
20705;SDS011;10514;49.468;11.044;2023-04-09T06:47:57;17.00;;;12.07;;
20705;SDS011;10514;49.468;11.044;2023-04-09T06:50:23;19.40;;;13.47;;
20705;SDS011;10514;49.468;11.044;2023-04-09T06:52:50;22.27;;;14.80;;
20705;SDS011;10514;49.468;11.044;2023-04-09T06:55:16;17.13;;;12.70;;
20705;SDS011;10514;49.468;11.044;2023-04-09T06:57:41;17.60;;;12.57;;
20705;SDS011;10514;49.468;11.044;2023-04-09T07:00:08;19.07;;;12.70;;
20705;SDS011;10514;49.468;11.044;2023-04-09T07:02:34;17.67;;;11.77;;
20705;SDS011;10514;49.468;11.044;2023-04-09T07:05:00;15.52;;;11.73;;
20705;SDS011;10514;49.468;11.044;2023-04-09T07:07:26;17.05;;;12.48;;
20705;SDS011;10514;49.468;11.044;2023-04-09T07:09:52;17.90;;;12.68;;
20705;SDS011;10514;49.468;11.044;2023-04-09T07:12:28;15.40;;;11.13;;
20705;SDS011;10514;49.468;11.044;2023-04-09T07:14:57;14.32;;;11.27;;
20705;SDS011;10514;49.468;11.044;2023-04-09T07:17:24;14.90;;;11.32;;
20705;SDS011;10514;49.468;11.044;2023-04-09T07:19:50;15.45;;;12.00;;
20705;SDS011;10514;49.468;11.044;2023-04-09T07:22:16;16.45;;;11.63;;
20705;SDS011;10514;49.468;11.044;2023-04-09T07:24:42;15.32;;;11.38;;
20705;SDS011;10514;49.468;11.044;2023-04-09T07:27:08;17.52;;;12.13;;
20705;SDS011;10514;49.468;11.044;2023-04-09T07:29:34;16.75;;;11.73;;
20705;SDS011;10514;49.468;11.044;2023-04-09T07:32:00;16.73;;;12.30;;
20705;SDS011;10514;49.468;11.044;2023-04-09T07:34:27;13.77;;;11.20;;
20705;SDS011;10514;49.468;11.044;2023-04-09T07:36:53;17.20;;;12.05;;
20705;SDS011;10514;49.468;11.044;2023-04-09T07:39:19;22.45;;;14.80;;
20705;SDS011;10514;49.468;11.044;2023-04-09T07:41:46;19.52;;;15.35;;
20705;SDS011;10514;49.468;11.044;2023-04-09T07:44:12;17.77;;;13.50;;
20705;SDS011;10514;49.468;11.044;2023-04-09T07:46:38;18.38;;;11.90;;
20705;SDS011;10514;49.468;11.044;2023-04-09T07:49:06;15.63;;;11.23;;
20705;SDS011;10514;49.468;11.044;2023-04-09T07:51:32;15.48;;;11.07;;
20705;SDS011;10514;49.468;11.044;2023-04-09T07:53:58;15.95;;;11.15;;
20705;SDS011;10514;49.468;11.044;2023-04-09T07:56:24;14.80;;;11.48;;
20705;SDS011;10514;49.468;11.044;2023-04-09T07:58:49;14.35;;;11.38;;
20705;SDS011;10514;49.468;11.044;2023-04-09T08:01:15;15.27;;;11.65;;
20705;SDS011;10514;49.468;11.044;2023-04-09T08:03:42;15.50;;;11.93;;
20705;SDS011;10514;49.468;11.044;2023-04-09T08:06:08;15.02;;;11.73;;
20705;SDS011;10514;49.468;11.044;2023-04-09T08:08:33;14.65;;;11.02;;
20705;SDS011;10514;49.468;11.044;2023-04-09T08:10:59;13.82;;;10.70;;
20705;SDS011;10514;49.468;11.044;2023-04-09T08:13:25;13.75;;;10.82;;
20705;SDS011;10514;49.468;11.044;2023-04-09T08:15:51;14.50;;;11.35;;
20705;SDS011;10514;49.468;11.044;2023-04-09T08:18:18;13.35;;;11.27;;
20705;SDS011;10514;49.468;11.044;2023-04-09T08:20:44;13.70;;;10.43;;
20705;SDS011;10514;49.468;11.044;2023-04-09T08:23:09;14.40;;;9.88;;
20705;SDS011;10514;49.468;11.044;2023-04-09T08:25:35;13.25;;;10.48;;
20705;SDS011;10514;49.468;11.044;2023-04-09T08:28:01;13.57;;;10.48;;
20705;SDS011;10514;49.468;11.044;2023-04-09T08:30:28;12.13;;;9.57;;
20705;SDS011;10514;49.468;11.044;2023-04-09T08:32:54;14.43;;;11.20;;
20705;SDS011;10514;49.468;11.044;2023-04-09T08:35:20;11.57;;;10.02;;
20705;SDS011;10514;49.468;11.044;2023-04-09T08:37:46;13.02;;;10.30;;
20705;SDS011;10514;49.468;11.044;2023-04-09T08:40:12;11.73;;;10.05;;
20705;SDS011;10514;49.468;11.044;2023-04-09T08:42:42;12.68;;;10.23;;
20705;SDS011;10514;49.468;11.044;2023-04-09T08:45:10;12.35;;;10.05;;
20705;SDS011;10514;49.468;11.044;2023-04-09T08:47:36;11.82;;;10.10;;
20705;SDS011;10514;49.468;11.044;2023-04-09T08:50:03;11.13;;;9.50;;
20705;SDS011;10514;49.468;11.044;2023-04-09T08:52:32;13.07;;;10.48;;
20705;SDS011;10514;49.468;11.044;2023-04-09T08:54:58;11.27;;;9.88;;
20705;SDS011;10514;49.468;11.044;2023-04-09T08:57:24;13.50;;;10.18;;
20705;SDS011;10514;49.468;11.044;2023-04-09T08:59:50;12.80;;;10.05;;
20705;SDS011;10514;49.468;11.044;2023-04-09T09:02:16;12.35;;;9.20;;
20705;SDS011;10514;49.468;11.044;2023-04-09T09:07:10;9.85;;;8.63;;
20705;SDS011;10514;49.468;11.044;2023-04-09T09:09:49;11.45;;;9.52;;
20705;SDS011;10514;49.468;11.044;2023-04-09T09:12:30;11.85;;;9.18;;
20705;SDS011;10514;49.468;11.044;2023-04-09T09:14:56;10.63;;;8.77;;
20705;SDS011;10514;49.468;11.044;2023-04-09T09:17:22;12.07;;;9.10;;
20705;SDS011;10514;49.468;11.044;2023-04-09T09:19:48;10.73;;;8.95;;
20705;SDS011;10514;49.468;11.044;2023-04-09T09:22:14;12.27;;;9.00;;
20705;SDS011;10514;49.468;11.044;2023-04-09T09:27:32;13.57;;;9.27;;
20705;SDS011;10514;49.468;11.044;2023-04-09T09:30:00;14.80;;;9.15;;
20705;SDS011;10514;49.468;11.044;2023-04-09T09:32:30;10.93;;;8.93;;
20705;SDS011;10514;49.468;11.044;2023-04-09T09:35:02;11.82;;;8.65;;
20705;SDS011;10514;49.468;11.044;2023-04-09T09:37:29;12.70;;;9.88;;
20705;SDS011;10514;49.468;11.044;2023-04-09T09:39:56;12.75;;;10.57;;
20705;SDS011;10514;49.468;11.044;2023-04-09T09:42:22;14.82;;;10.88;;
20705;SDS011;10514;49.468;11.044;2023-04-09T09:44:48;18.75;;;12.63;;
20705;SDS011;10514;49.468;11.044;2023-04-09T09:47:14;14.55;;;10.77;;
20705;SDS011;10514;49.468;11.044;2023-04-09T09:49:41;12.63;;;9.95;;
20705;SDS011;10514;49.468;11.044;2023-04-09T09:52:07;41.05;;;25.35;;
20705;SDS011;10514;49.468;11.044;2023-04-09T09:54:40;20.52;;;13.98;;
20705;SDS011;10514;49.468;11.044;2023-04-09T09:57:09;13.90;;;11.10;;
20705;SDS011;10514;49.468;11.044;2023-04-09T10:00:00;12.27;;;9.13;;
20705;SDS011;10514;49.468;11.044;2023-04-09T10:02:30;11.95;;;9.02;;
20705;SDS011;10514;49.468;11.044;2023-04-09T10:05:01;12.73;;;9.02;;
20705;SDS011;10514;49.468;11.044;2023-04-09T10:07:30;11.77;;;9.27;;
20705;SDS011;10514;49.468;11.044;2023-04-09T10:09:56;22.20;;;15.82;;
20705;SDS011;10514;49.468;11.044;2023-04-09T10:12:23;20.00;;;14.20;;
20705;SDS011;10514;49.468;11.044;2023-04-09T10:14:50;18.73;;;14.02;;
20705;SDS011;10514;49.468;11.044;2023-04-09T10:17:20;13.07;;;9.85;;
20705;SDS011;10514;49.468;11.044;2023-04-09T10:19:48;14.13;;;9.20;;
20705;SDS011;10514;49.468;11.044;2023-04-09T10:22:20;12.35;;;8.88;;
20705;SDS011;10514;49.468;11.044;2023-04-09T10:24:51;12.27;;;9.23;;
20705;SDS011;10514;49.468;11.044;2023-04-09T10:27:16;11.68;;;8.27;;
20705;SDS011;10514;49.468;11.044;2023-04-09T10:29:43;11.35;;;8.07;;
20705;SDS011;10514;49.468;11.044;2023-04-09T10:32:17;10.38;;;8.00;;
20705;SDS011;10514;49.468;11.044;2023-04-09T10:34:45;10.48;;;7.82;;
20705;SDS011;10514;49.468;11.044;2023-04-09T10:37:14;7.85;;;6.45;;
20705;SDS011;10514;49.468;11.044;2023-04-09T10:39:44;9.55;;;7.30;;
20705;SDS011;10514;49.468;11.044;2023-04-09T10:42:13;9.02;;;7.47;;
20705;SDS011;10514;49.468;11.044;2023-04-09T10:44:39;9.63;;;6.85;;
20705;SDS011;10514;49.468;11.044;2023-04-09T10:47:08;9.05;;;7.72;;
20705;SDS011;10514;49.468;11.044;2023-04-09T10:49:38;8.20;;;6.47;;
20705;SDS011;10514;49.468;11.044;2023-04-09T10:52:09;7.55;;;6.38;;
20705;SDS011;10514;49.468;11.044;2023-04-09T10:54:39;9.43;;;6.88;;
20705;SDS011;10514;49.468;11.044;2023-04-09T10:59:37;9.07;;;6.72;;
20705;SDS011;10514;49.468;11.044;2023-04-09T11:02:18;8.30;;;6.78;;
20705;SDS011;10514;49.468;11.044;2023-04-09T11:07:57;5.22;;;4.43;;
20705;SDS011;10514;49.468;11.044;2023-04-09T11:10:30;7.03;;;4.75;;
20705;SDS011;10514;49.468;11.044;2023-04-09T11:12:56;6.05;;;4.50;;
20705;SDS011;10514;49.468;11.044;2023-04-09T11:15:22;5.60;;;4.60;;
20705;SDS011;10514;49.468;11.044;2023-04-09T11:17:48;5.75;;;4.55;;
20705;SDS011;10514;49.468;11.044;2023-04-09T11:20:15;6.30;;;4.63;;
20705;SDS011;10514;49.468;11.044;2023-04-09T11:22:44;5.78;;;4.60;;
20705;SDS011;10514;49.468;11.044;2023-04-09T11:25:09;6.28;;;4.90;;
20705;SDS011;10514;49.468;11.044;2023-04-09T11:27:42;6.47;;;5.10;;
20705;SDS011;10514;49.468;11.044;2023-04-09T11:30:08;7.18;;;4.47;;
20705;SDS011;10514;49.468;11.044;2023-04-09T11:32:34;5.22;;;4.43;;
20705;SDS011;10514;49.468;11.044;2023-04-09T11:35:00;6.40;;;5.28;;
20705;SDS011;10514;49.468;11.044;2023-04-09T11:37:27;4.85;;;3.42;;
20705;SDS011;10514;49.468;11.044;2023-04-09T11:39:53;6.15;;;3.70;;
20705;SDS011;10514;49.468;11.044;2023-04-09T11:42:20;3.97;;;3.58;;
20705;SDS011;10514;49.468;11.044;2023-04-09T11:44:47;6.57;;;4.50;;
20705;SDS011;10514;49.468;11.044;2023-04-09T11:47:13;3.90;;;3.50;;
20705;SDS011;10514;49.468;11.044;2023-04-09T11:49:41;5.68;;;4.57;;
20705;SDS011;10514;49.468;11.044;2023-04-09T11:52:07;5.63;;;4.55;;
20705;SDS011;10514;49.468;11.044;2023-04-09T11:54:33;5.20;;;4.07;;
20705;SDS011;10514;49.468;11.044;2023-04-09T11:56:59;5.63;;;4.43;;
20705;SDS011;10514;49.468;11.044;2023-04-09T11:59:25;6.15;;;4.82;;
20705;SDS011;10514;49.468;11.044;2023-04-09T12:01:51;5.82;;;4.53;;
20705;SDS011;10514;49.468;11.044;2023-04-09T12:04:20;6.38;;;4.93;;
20705;SDS011;10514;49.468;11.044;2023-04-09T12:06:46;5.70;;;4.72;;
20705;SDS011;10514;49.468;11.044;2023-04-09T12:09:13;6.30;;;5.00;;
20705;SDS011;10514;49.468;11.044;2023-04-09T12:11:41;6.60;;;5.03;;
20705;SDS011;10514;49.468;11.044;2023-04-09T12:14:11;5.88;;;4.93;;
20705;SDS011;10514;49.468;11.044;2023-04-09T12:16:38;5.65;;;4.63;;
20705;SDS011;10514;49.468;11.044;2023-04-09T12:19:11;6.07;;;4.63;;
20705;SDS011;10514;49.468;11.044;2023-04-09T12:24:29;6.00;;;5.05;;
20705;SDS011;10514;49.468;11.044;2023-04-09T12:26:55;5.40;;;4.43;;
20705;SDS011;10514;49.468;11.044;2023-04-09T12:29:21;6.70;;;5.10;;
20705;SDS011;10514;49.468;11.044;2023-04-09T12:31:48;8.30;;;5.72;;
20705;SDS011;10514;49.468;11.044;2023-04-09T12:34:13;11.35;;;7.82;;
20705;SDS011;10514;49.468;11.044;2023-04-09T12:36:39;19.63;;;10.50;;
20705;SDS011;10514;49.468;11.044;2023-04-09T12:39:08;7.80;;;6.40;;
20705;SDS011;10514;49.468;11.044;2023-04-09T12:41:33;11.13;;;8.05;;
20705;SDS011;10514;49.468;11.044;2023-04-09T12:43:59;6.65;;;5.75;;
20705;SDS011;10514;49.468;11.044;2023-04-09T12:46:25;8.55;;;6.43;;
20705;SDS011;10514;49.468;11.044;2023-04-09T12:48:52;13.02;;;8.80;;
20705;SDS011;10514;49.468;11.044;2023-04-09T12:51:18;8.98;;;6.38;;
20705;SDS011;10514;49.468;11.044;2023-04-09T12:53:43;7.72;;;4.78;;
20705;SDS011;10514;49.468;11.044;2023-04-09T12:56:10;7.28;;;4.45;;
20705;SDS011;10514;49.468;11.044;2023-04-09T12:58:35;10.35;;;7.80;;
20705;SDS011;10514;49.468;11.044;2023-04-09T13:01:02;9.75;;;7.20;;
20705;SDS011;10514;49.468;11.044;2023-04-09T13:03:28;15.95;;;10.10;;
20705;SDS011;10514;49.468;11.044;2023-04-09T13:05:54;8.57;;;6.18;;
20705;SDS011;10514;49.468;11.044;2023-04-09T13:08:20;6.15;;;5.10;;
20705;SDS011;10514;49.468;11.044;2023-04-09T13:10:46;7.22;;;4.97;;
20705;SDS011;10514;49.468;11.044;2023-04-09T13:13:12;10.60;;;8.05;;
20705;SDS011;10514;49.468;11.044;2023-04-09T13:15:38;7.22;;;5.72;;
20705;SDS011;10514;49.468;11.044;2023-04-09T13:18:07;7.72;;;5.97;;
20705;SDS011;10514;49.468;11.044;2023-04-09T13:20:33;8.82;;;4.85;;
20705;SDS011;10514;49.468;11.044;2023-04-09T13:22:59;8.45;;;5.97;;
20705;SDS011;10514;49.468;11.044;2023-04-09T13:25:25;6.65;;;5.38;;
20705;SDS011;10514;49.468;11.044;2023-04-09T13:27:51;6.53;;;4.60;;
20705;SDS011;10514;49.468;11.044;2023-04-09T13:30:17;6.35;;;5.60;;
20705;SDS011;10514;49.468;11.044;2023-04-09T13:32:42;6.70;;;5.35;;
20705;SDS011;10514;49.468;11.044;2023-04-09T13:35:08;5.80;;;4.68;;
20705;SDS011;10514;49.468;11.044;2023-04-09T13:37:35;6.15;;;5.10;;
20705;SDS011;10514;49.468;11.044;2023-04-09T13:40:01;5.80;;;4.65;;
20705;SDS011;10514;49.468;11.044;2023-04-09T13:42:27;5.78;;;5.15;;
20705;SDS011;10514;49.468;11.044;2023-04-09T13:44:53;6.68;;;5.55;;
20705;SDS011;10514;49.468;11.044;2023-04-09T13:47:20;6.60;;;5.03;;
20705;SDS011;10514;49.468;11.044;2023-04-09T13:49:47;6.38;;;4.80;;
20705;SDS011;10514;49.468;11.044;2023-04-09T13:52:15;6.30;;;5.25;;
20705;SDS011;10514;49.468;11.044;2023-04-09T13:54:42;5.28;;;4.72;;
20705;SDS011;10514;49.468;11.044;2023-04-09T13:57:08;6.68;;;4.55;;
20705;SDS011;10514;49.468;11.044;2023-04-09T13:59:34;5.72;;;4.45;;
20705;SDS011;10514;49.468;11.044;2023-04-09T14:02:01;7.60;;;5.50;;
20705;SDS011;10514;49.468;11.044;2023-04-09T14:04:27;7.15;;;5.32;;
20705;SDS011;10514;49.468;11.044;2023-04-09T14:06:54;12.98;;;9.38;;
20705;SDS011;10514;49.468;11.044;2023-04-09T14:09:21;14.75;;;9.77;;
20705;SDS011;10514;49.468;11.044;2023-04-09T14:11:47;8.30;;;5.93;;
20705;SDS011;10514;49.468;11.044;2023-04-09T14:14:13;8.65;;;5.32;;
20705;SDS011;10514;49.468;11.044;2023-04-09T14:16:39;7.63;;;5.30;;
20705;SDS011;10514;49.468;11.044;2023-04-09T14:19:05;6.60;;;5.15;;
20705;SDS011;10514;49.468;11.044;2023-04-09T14:21:32;5.75;;;4.68;;
20705;SDS011;10514;49.468;11.044;2023-04-09T14:23:58;6.03;;;5.43;;
20705;SDS011;10514;49.468;11.044;2023-04-09T14:26:24;7.88;;;5.55;;
20705;SDS011;10514;49.468;11.044;2023-04-09T14:28:50;9.02;;;6.07;;
20705;SDS011;10514;49.468;11.044;2023-04-09T14:31:16;8.60;;;5.90;;
20705;SDS011;10514;49.468;11.044;2023-04-09T14:33:45;8.63;;;6.05;;
20705;SDS011;10514;49.468;11.044;2023-04-09T14:36:11;8.77;;;6.43;;
20705;SDS011;10514;49.468;11.044;2023-04-09T14:38:37;7.60;;;4.97;;
20705;SDS011;10514;49.468;11.044;2023-04-09T14:41:03;5.68;;;4.47;;